KGLR/GLR METAR and TAF weather

Enter ICAO airport designator
Station Type Date Time Source
KGLR METAR 2019/06/26 19:53 UTC NOAA

KGLR 261953Z AUTO 27011G23KT 10SM FEW060 26/10 A3003 RMK AO2 SLP163 T02560100


Station Type Date Time Source
KGLR Decoded METAR 2019/06/26 19:53 UTC NOAA

GAYLORD REGIONAL AIRPORT, MI, United States (KGLR) 45-01N 84-41W 407M
Jun 26, 2019 - 03:53 PM EDT / 2019.06.26 1953 UTC
Wind: from the W (270 degrees) at 13 MPH (11 KT) gusting to 26 MPH (23 KT):0
Visibility: 10 mile(s):0
Sky conditions: mostly clear
Temperature: 78.1 F (25.6 C)
Dew Point: 50.0 F (10.0 C)
Relative Humidity: 37%
Pressure (altimeter): 30.03 in. Hg (1016 hPa)
ob: KGLR 261953Z AUTO 27011G23KT 10SM FEW060 26/10 A3003 RMK AO2 SLP163 T02560100
cycle: 20

Station Type Date Time Source
KGLR TAF UTC NOAA

Error!

Example: see airport list